sensor_id;sensor_type;location;lat;lon;timestamp;temperature;humidity
11188;DHT22;5650;52.700;7.306;2022-07-23T00:01:21;16.00;99.90
11188;DHT22;5650;52.700;7.306;2022-07-23T00:03:48;16.00;99.90
11188;DHT22;5650;52.700;7.306;2022-07-23T00:06:23;16.00;99.90
11188;DHT22;5650;52.700;7.306;2022-07-23T00:08:50;16.00;99.90
11188;DHT22;5650;52.700;7.306;2022-07-23T00:11:25;16.00;99.90
11188;DHT22;5650;52.700;7.306;2022-07-23T00:13:54;16.00;99.90
11188;DHT22;5650;52.700;7.306;2022-07-23T00:16:33;16.10;99.90
11188;DHT22;5650;52.700;7.306;2022-07-23T00:19:00;16.10;99.90
11188;DHT22;5650;52.700;7.306;2022-07-23T00:21:34;16.10;99.90
11188;DHT22;5650;52.700;7.306;2022-07-23T00:24:01;16.20;99.90
11188;DHT22;5650;52.700;7.306;2022-07-23T00:26:34;16.20;99.90
11188;DHT22;5650;52.700;7.306;2022-07-23T00:29:14;16.20;99.90
11188;DHT22;5650;52.700;7.306;2022-07-23T00:31:46;16.20;99.90
11188;DHT22;5650;52.700;7.306;2022-07-23T00:34:13;16.20;99.90
11188;DHT22;5650;52.700;7.306;2022-07-23T00:36:43;16.10;99.90
11188;DHT22;5650;52.700;7.306;2022-07-23T00:39:15;16.10;99.90
11188;DHT22;5650;52.700;7.306;2022-07-23T00:41:42;16.10;99.90
11188;DHT22;5650;52.700;7.306;2022-07-23T00:44:17;16.00;99.90
11188;DHT22;5650;52.700;7.306;2022-07-23T00:46:53;16.00;99.90
11188;DHT22;5650;52.700;7.306;2022-07-23T00:49:25;16.00;99.90
11188;DHT22;5650;52.700;7.306;2022-07-23T00:51:52;16.00;99.90
11188;DHT22;5650;52.700;7.306;2022-07-23T00:54:24;15.90;99.90
11188;DHT22;5650;52.700;7.306;2022-07-23T00:56:51;15.90;99.90
11188;DHT22;5650;52.700;7.306;2022-07-23T00:59:18;15.90;99.90
11188;DHT22;5650;52.700;7.306;2022-07-23T01:01:45;15.90;99.90
11188;DHT22;5650;52.700;7.306;2022-07-23T01:04:16;15.80;99.90
11188;DHT22;5650;52.700;7.306;2022-07-23T01:06:49;15.80;99.90
11188;DHT22;5650;52.700;7.306;2022-07-23T01:09:17;15.80;99.90
11188;DHT22;5650;52.700;7.306;2022-07-23T01:11:44;15.80;99.90
11188;DHT22;5650;52.700;7.306;2022-07-23T01:14:21;15.70;99.90
11188;DHT22;5650;52.700;7.306;2022-07-23T01:16:49;15.70;99.90
11188;DHT22;5650;52.700;7.306;2022-07-23T01:19:18;15.70;99.90
11188;DHT22;5650;52.700;7.306;2022-07-23T01:21:47;15.70;99.90
11188;DHT22;5650;52.700;7.306;2022-07-23T01:24:22;15.70;99.90
11188;DHT22;5650;52.700;7.306;2022-07-23T01:26:50;15.60;99.90
11188;DHT22;5650;52.700;7.306;2022-07-23T01:29:26;15.70;99.90
11188;DHT22;5650;52.700;7.306;2022-07-23T01:31:53;15.70;99.90
11188;DHT22;5650;52.700;7.306;2022-07-23T01:34:20;15.70;99.90
11188;DHT22;5650;52.700;7.306;2022-07-23T01:36:47;15.70;99.90
11188;DHT22;5650;52.700;7.306;2022-07-23T01:39:19;15.70;99.90
11188;DHT22;5650;52.700;7.306;2022-07-23T01:41:49;15.70;99.90
11188;DHT22;5650;52.700;7.306;2022-07-23T01:44:27;15.70;99.90
11188;DHT22;5650;52.700;7.306;2022-07-23T01:46:56;15.70;99.90
11188;DHT22;5650;52.700;7.306;2022-07-23T01:49:26;15.70;99.90
11188;DHT22;5650;52.700;7.306;2022-07-23T01:51:53;15.60;99.90
11188;DHT22;5650;52.700;7.306;2022-07-23T01:54:34;15.60;99.90
11188;DHT22;5650;52.700;7.306;2022-07-23T01:57:01;15.50;99.90
11188;DHT22;5650;52.700;7.306;2022-07-23T01:59:28;15.50;99.90
11188;DHT22;5650;52.700;7.306;2022-07-23T02:01:55;15.40;99.90
11188;DHT22;5650;52.700;7.306;2022-07-23T02:04:26;15.40;99.90
11188;DHT22;5650;52.700;7.306;2022-07-23T02:06:54;15.40;99.90
11188;DHT22;5650;52.700;7.306;2022-07-23T02:09:30;15.30;99.90
11188;DHT22;5650;52.700;7.306;2022-07-23T02:12:02;15.20;99.90
11188;DHT22;5650;52.700;7.306;2022-07-23T02:14:29;15.20;99.90
11188;DHT22;5650;52.700;7.306;2022-07-23T02:17:02;15.20;99.90
11188;DHT22;5650;52.700;7.306;2022-07-23T02:19:33;15.10;99.90
11188;DHT22;5650;52.700;7.306;2022-07-23T02:22:03;15.10;99.90
11188;DHT22;5650;52.700;7.306;2022-07-23T02:24:30;15.00;99.90
11188;DHT22;5650;52.700;7.306;2022-07-23T02:26:57;15.00;99.90
11188;DHT22;5650;52.700;7.306;2022-07-23T02:29:26;15.00;99.90
11188;DHT22;5650;52.700;7.306;2022-07-23T02:31:53;15.00;99.90
11188;DHT22;5650;52.700;7.306;2022-07-23T02:34:20;14.90;99.90
11188;DHT22;5650;52.700;7.306;2022-07-23T02:36:49;14.90;99.90
11188;DHT22;5650;52.700;7.306;2022-07-23T02:39:26;14.80;99.90
11188;DHT22;5650;52.700;7.306;2022-07-23T02:41:53;14.80;99.90
11188;DHT22;5650;52.700;7.306;2022-07-23T02:44:20;14.80;99.90
11188;DHT22;5650;52.700;7.306;2022-07-23T02:46:49;14.80;99.90
11188;DHT22;5650;52.700;7.306;2022-07-23T02:49:16;14.80;99.90
11188;DHT22;5650;52.700;7.306;2022-07-23T02:51:43;14.70;99.90
11188;DHT22;5650;52.700;7.306;2022-07-23T02:54:13;14.70;99.90
11188;DHT22;5650;52.700;7.306;2022-07-23T02:56:40;14.70;99.90
11188;DHT22;5650;52.700;7.306;2022-07-23T02:59:13;14.60;99.90
11188;DHT22;5650;52.700;7.306;2022-07-23T03:01:40;14.60;99.90
11188;DHT22;5650;52.700;7.306;2022-07-23T03:04:09;14.60;99.90
11188;DHT22;5650;52.700;7.306;2022-07-23T03:06:46;14.60;99.90
11188;DHT22;5650;52.700;7.306;2022-07-23T03:09:13;14.60;99.90
11188;DHT22;5650;52.700;7.306;2022-07-23T03:11:43;14.60;99.90
11188;DHT22;5650;52.700;7.306;2022-07-23T03:14:12;14.50;99.90
11188;DHT22;5650;52.700;7.306;2022-07-23T03:16:41;14.50;99.90
11188;DHT22;5650;52.700;7.306;2022-07-23T03:19:19;14.50;99.90
11188;DHT22;5650;52.700;7.306;2022-07-23T03:21:46;14.50;99.90
11188;DHT22;5650;52.700;7.306;2022-07-23T03:24:14;14.50;99.90
11188;DHT22;5650;52.700;7.306;2022-07-23T03:26:49;14.50;99.90
11188;DHT22;5650;52.700;7.306;2022-07-23T03:29:18;14.50;99.90
11188;DHT22;5650;52.700;7.306;2022-07-23T03:31:49;14.50;99.90
11188;DHT22;5650;52.700;7.306;2022-07-23T03:34:20;14.50;99.90
11188;DHT22;5650;52.700;7.306;2022-07-23T03:36:53;14.50;99.90
11188;DHT22;5650;52.700;7.306;2022-07-23T03:39:23;14.50;99.90
11188;DHT22;5650;52.700;7.306;2022-07-23T03:42:02;14.40;99.90
11188;DHT22;5650;52.700;7.306;2022-07-23T03:44:33;14.40;99.90
11188;DHT22;5650;52.700;7.306;2022-07-23T03:47:07;14.40;99.90
11188;DHT22;5650;52.700;7.306;2022-07-23T03:49:38;14.40;99.90
11188;DHT22;5650;52.700;7.306;2022-07-23T03:52:06;14.40;99.90
11188;DHT22;5650;52.700;7.306;2022-07-23T03:54:36;14.40;99.90
11188;DHT22;5650;52.700;7.306;2022-07-23T03:57:09;14.40;99.90
11188;DHT22;5650;52.700;7.306;2022-07-23T03:59:39;14.30;99.90
11188;DHT22;5650;52.700;7.306;2022-07-23T04:02:06;14.30;99.90
11188;DHT22;5650;52.700;7.306;2022-07-23T04:04:40;14.30;99.90
11188;DHT22;5650;52.700;7.306;2022-07-23T04:07:07;14.30;99.90
11188;DHT22;5650;52.700;7.306;2022-07-23T04:09:37;14.30;99.90
11188;DHT22;5650;52.700;7.306;2022-07-23T04:12:10;14.40;99.90
11188;DHT22;5650;52.700;7.306;2022-07-23T04:14:37;14.60;99.90
11188;DHT22;5650;52.700;7.306;2022-07-23T04:17:07;14.90;99.90
11188;DHT22;5650;52.700;7.306;2022-07-23T04:19:41;15.30;99.90
11188;DHT22;5650;52.700;7.306;2022-07-23T04:22:09;15.80;99.90
11188;DHT22;5650;52.700;7.306;2022-07-23T04:24:37;16.20;99.90
11188;DHT22;5650;52.700;7.306;2022-07-23T04:27:04;16.60;99.90
11188;DHT22;5650;52.700;7.306;2022-07-23T04:29:32;16.80;99.90
11188;DHT22;5650;52.700;7.306;2022-07-23T04:31:59;17.00;99.90
11188;DHT22;5650;52.700;7.306;2022-07-23T04:34:26;17.00;99.90
11188;DHT22;5650;52.700;7.306;2022-07-23T04:36:55;16.90;99.90
11188;DHT22;5650;52.700;7.306;2022-07-23T04:39:31;16.80;99.90
11188;DHT22;5650;52.700;7.306;2022-07-23T04:42:04;16.60;99.90
11188;DHT22;5650;52.700;7.306;2022-07-23T04:44:31;16.50;99.90
11188;DHT22;5650;52.700;7.306;2022-07-23T04:46:58;16.40;99.90
11188;DHT22;5650;52.700;7.306;2022-07-23T04:49:26;16.30;99.90
11188;DHT22;5650;52.700;7.306;2022-07-23T04:52:03;16.10;99.90
11188;DHT22;5650;52.700;7.306;2022-07-23T04:54:33;16.10;99.90
11188;DHT22;5650;52.700;7.306;2022-07-23T04:57:03;16.00;99.90
11188;DHT22;5650;52.700;7.306;2022-07-23T04:59:31;16.00;99.90
11188;DHT22;5650;52.700;7.306;2022-07-23T05:02:01;16.00;99.90
11188;DHT22;5650;52.700;7.306;2022-07-23T05:04:28;16.10;99.90
11188;DHT22;5650;52.700;7.306;2022-07-23T05:06:56;16.10;99.90
11188;DHT22;5650;52.700;7.306;2022-07-23T05:09:27;16.20;99.90
11188;DHT22;5650;52.700;7.306;2022-07-23T05:11:54;16.20;99.90
11188;DHT22;5650;52.700;7.306;2022-07-23T05:14:21;16.10;99.90
11188;DHT22;5650;52.700;7.306;2022-07-23T05:16:49;16.10;99.90
11188;DHT22;5650;52.700;7.306;2022-07-23T05:19:20;16.10;99.90
11188;DHT22;5650;52.700;7.306;2022-07-23T05:21:47;16.00;99.90
11188;DHT22;5650;52.700;7.306;2022-07-23T05:24:17;16.00;99.90
11188;DHT22;5650;52.700;7.306;2022-07-23T05:26:46;16.00;99.90
11188;DHT22;5650;52.700;7.306;2022-07-23T05:29:13;16.10;99.90
11188;DHT22;5650;52.700;7.306;2022-07-23T05:31:43;16.20;99.90
11188;DHT22;5650;52.700;7.306;2022-07-23T05:34:13;16.40;99.90
11188;DHT22;5650;52.700;7.306;2022-07-23T05:36:43;16.50;99.90
11188;DHT22;5650;52.700;7.306;2022-07-23T05:39:13;17.10;99.90
11188;DHT22;5650;52.700;7.306;2022-07-23T05:41:54;18.00;99.90
11188;DHT22;5650;52.700;7.306;2022-07-23T05:44:27;18.90;99.90
11188;DHT22;5650;52.700;7.306;2022-07-23T05:46:57;19.90;99.90
11188;DHT22;5650;52.700;7.306;2022-07-23T05:49:24;20.40;99.90
11188;DHT22;5650;52.700;7.306;2022-07-23T05:51:51;20.80;99.90
11188;DHT22;5650;52.700;7.306;2022-07-23T05:54:21;21.20;99.90
11188;DHT22;5650;52.700;7.306;2022-07-23T05:56:50;21.40;99.90
11188;DHT22;5650;52.700;7.306;2022-07-23T05:59:21;21.90;99.90
11188;DHT22;5650;52.700;7.306;2022-07-23T06:01:48;22.50;99.90
11188;DHT22;5650;52.700;7.306;2022-07-23T06:04:21;23.00;99.90
11188;DHT22;5650;52.700;7.306;2022-07-23T06:07:07;23.60;99.90
11188;DHT22;5650;52.700;7.306;2022-07-23T06:09:34;24.10;99.90
11188;DHT22;5650;52.700;7.306;2022-07-23T06:12:04;24.50;99.60
11188;DHT22;5650;52.700;7.306;2022-07-23T06:14:32;24.90;99.70
11188;DHT22;5650;52.700;7.306;2022-07-23T06:17:01;25.20;98.10
11188;DHT22;5650;52.700;7.306;2022-07-23T06:19:33;25.40;95.90
11188;DHT22;5650;52.700;7.306;2022-07-23T06:22:00;25.60;96.00
11188;DHT22;5650;52.700;7.306;2022-07-23T06:24:32;25.80;95.50
11188;DHT22;5650;52.700;7.306;2022-07-23T06:27:03;26.00;94.00
11188;DHT22;5650;52.700;7.306;2022-07-23T06:29:30;26.10;94.00
11188;DHT22;5650;52.700;7.306;2022-07-23T06:32:04;26.30;93.40
11188;DHT22;5650;52.700;7.306;2022-07-23T06:34:31;26.60;93.20
11188;DHT22;5650;52.700;7.306;2022-07-23T06:36:59;26.80;92.60
11188;DHT22;5650;52.700;7.306;2022-07-23T06:39:26;26.90;92.10
11188;DHT22;5650;52.700;7.306;2022-07-23T06:41:55;26.70;90.50
11188;DHT22;5650;52.700;7.306;2022-07-23T06:44:22;26.40;90.60
11188;DHT22;5650;52.700;7.306;2022-07-23T06:46:57;26.10;91.10
11188;DHT22;5650;52.700;7.306;2022-07-23T06:49:24;25.80;91.60
11188;DHT22;5650;52.700;7.306;2022-07-23T06:52:00;25.50;91.60
11188;DHT22;5650;52.700;7.306;2022-07-23T06:54:39;25.10;92.10
11188;DHT22;5650;52.700;7.306;2022-07-23T06:57:08;24.80;93.10
11188;DHT22;5650;52.700;7.306;2022-07-23T06:59:35;24.20;93.00
11188;DHT22;5650;52.700;7.306;2022-07-23T07:02:06;23.80;94.60
11188;DHT22;5650;52.700;7.306;2022-07-23T07:04:35;24.00;93.90
11188;DHT22;5650;52.700;7.306;2022-07-23T07:07:05;23.90;94.10
11188;DHT22;5650;52.700;7.306;2022-07-23T07:09:32;24.10;94.20
11188;DHT22;5650;52.700;7.306;2022-07-23T07:11:59;24.50;93.10
11188;DHT22;5650;52.700;7.306;2022-07-23T07:14:29;24.80;92.20
11188;DHT22;5650;52.700;7.306;2022-07-23T07:17:02;25.10;92.70
11188;DHT22;5650;52.700;7.306;2022-07-23T07:19:29;25.40;92.00
11188;DHT22;5650;52.700;7.306;2022-07-23T07:22:01;25.80;91.60
11188;DHT22;5650;52.700;7.306;2022-07-23T07:24:28;25.90;91.00
11188;DHT22;5650;52.700;7.306;2022-07-23T07:26:58;25.90;90.20
11188;DHT22;5650;52.700;7.306;2022-07-23T07:29:29;26.10;90.20
11188;DHT22;5650;52.700;7.306;2022-07-23T07:31:57;26.30;89.80
11188;DHT22;5650;52.700;7.306;2022-07-23T07:34:24;26.50;87.70
11188;DHT22;5650;52.700;7.306;2022-07-23T07:36:58;26.10;87.40
11188;DHT22;5650;52.700;7.306;2022-07-23T07:39:25;25.60;88.70
11188;DHT22;5650;52.700;7.306;2022-07-23T07:41:59;25.30;89.70
11188;DHT22;5650;52.700;7.306;2022-07-23T07:44:26;25.30;90.20
11188;DHT22;5650;52.700;7.306;2022-07-23T07:46:57;25.30;90.80
11188;DHT22;5650;52.700;7.306;2022-07-23T07:49:28;25.70;90.00
11188;DHT22;5650;52.700;7.306;2022-07-23T07:51:55;25.90;89.30
11188;DHT22;5650;52.700;7.306;2022-07-23T07:54:22;25.70;89.30
11188;DHT22;5650;52.700;7.306;2022-07-23T07:56:52;25.20;89.10
11188;DHT22;5650;52.700;7.306;2022-07-23T07:59:19;24.30;88.80
11188;DHT22;5650;52.700;7.306;2022-07-23T08:01:46;23.70;90.90
11188;DHT22;5650;52.700;7.306;2022-07-23T08:04:17;23.60;91.50
11188;DHT22;5650;52.700;7.306;2022-07-23T08:06:44;24.10;91.80
11188;DHT22;5650;52.700;7.306;2022-07-23T08:09:13;24.40;90.40
11188;DHT22;5650;52.700;7.306;2022-07-23T08:11:40;24.80;90.10
11188;DHT22;5650;52.700;7.306;2022-07-23T08:14:07;25.20;89.60
11188;DHT22;5650;52.700;7.306;2022-07-23T08:16:39;25.30;89.70
11188;DHT22;5650;52.700;7.306;2022-07-23T08:19:06;25.30;88.50
11188;DHT22;5650;52.700;7.306;2022-07-23T08:21:35;24.90;89.00
11188;DHT22;5650;52.700;7.306;2022-07-23T08:24:08;24.70;90.00
11188;DHT22;5650;52.700;7.306;2022-07-23T08:26:36;24.50;90.00
11188;DHT22;5650;52.700;7.306;2022-07-23T08:29:03;24.20;90.70
11188;DHT22;5650;52.700;7.306;2022-07-23T08:31:32;24.10;91.00
11188;DHT22;5650;52.700;7.306;2022-07-23T08:34:02;24.10;90.90
11188;DHT22;5650;52.700;7.306;2022-07-23T08:36:37;24.10;91.10
11188;DHT22;5650;52.700;7.306;2022-07-23T08:39:13;24.20;90.80
11188;DHT22;5650;52.700;7.306;2022-07-23T08:41:40;24.40;90.60
11188;DHT22;5650;52.700;7.306;2022-07-23T08:44:11;24.60;90.40
11188;DHT22;5650;52.700;7.306;2022-07-23T08:46:44;24.80;90.00
11188;DHT22;5650;52.700;7.306;2022-07-23T08:49:12;24.80;89.10
11188;DHT22;5650;52.700;7.306;2022-07-23T08:51:41;24.50;90.00
11188;DHT22;5650;52.700;7.306;2022-07-23T08:54:08;24.40;90.10
11188;DHT22;5650;52.700;7.306;2022-07-23T08:56:39;24.20;89.00
11188;DHT22;5650;52.700;7.306;2022-07-23T08:59:10;23.90;88.60
11188;DHT22;5650;52.700;7.306;2022-07-23T09:01:39;23.40;90.40
11188;DHT22;5650;52.700;7.306;2022-07-23T09:04:06;23.30;91.90
11188;DHT22;5650;52.700;7.306;2022-07-23T09:06:33;23.60;92.10
11188;DHT22;5650;52.700;7.306;2022-07-23T09:09:16;23.90;91.10
11188;DHT22;5650;52.700;7.306;2022-07-23T09:12:02;24.10;90.30
11188;DHT22;5650;52.700;7.306;2022-07-23T09:14:40;24.00;89.40
11188;DHT22;5650;52.700;7.306;2022-07-23T09:17:11;23.90;90.30
11188;DHT22;5650;52.700;7.306;2022-07-23T09:19:43;23.70;90.00
11188;DHT22;5650;52.700;7.306;2022-07-23T09:22:18;23.50;89.50
11188;DHT22;5650;52.700;7.306;2022-07-23T09:25:09;23.20;89.70
11188;DHT22;5650;52.700;7.306;2022-07-23T09:27:54;23.10;90.90
11188;DHT22;5650;52.700;7.306;2022-07-23T09:30:23;23.00;91.90
11188;DHT22;5650;52.700;7.306;2022-07-23T09:33:17;23.00;92.10
11188;DHT22;5650;52.700;7.306;2022-07-23T09:35:55;23.00;92.10
11188;DHT22;5650;52.700;7.306;2022-07-23T09:38:28;23.00;91.70
11188;DHT22;5650;52.700;7.306;2022-07-23T09:41:07;23.00;91.90
11188;DHT22;5650;52.700;7.306;2022-07-23T09:43:34;23.10;91.90
11188;DHT22;5650;52.700;7.306;2022-07-23T09:46:21;23.30;92.10
11188;DHT22;5650;52.700;7.306;2022-07-23T09:48:51;23.50;91.90
11188;DHT22;5650;52.700;7.306;2022-07-23T09:51:19;23.50;91.00
11188;DHT22;5650;52.700;7.306;2022-07-23T09:53:51;23.40;91.10
11188;DHT22;5650;52.700;7.306;2022-07-23T09:56:27;23.20;91.20
11188;DHT22;5650;52.700;7.306;2022-07-23T09:58:55;23.30;91.80
11188;DHT22;5650;52.700;7.306;2022-07-23T10:01:38;23.30;91.60
11188;DHT22;5650;52.700;7.306;2022-07-23T10:04:07;23.50;91.50
11188;DHT22;5650;52.700;7.306;2022-07-23T10:09:06;23.80;89.60
11188;DHT22;5650;52.700;7.306;2022-07-23T10:11:35;23.80;89.90
11188;DHT22;5650;52.700;7.306;2022-07-23T10:14:03;23.70;90.50
11188;DHT22;5650;52.700;7.306;2022-07-23T10:16:31;23.40;90.90
11188;DHT22;5650;52.700;7.306;2022-07-23T10:18:59;23.20;91.40
11188;DHT22;5650;52.700;7.306;2022-07-23T10:21:39;23.20;91.70
11188;DHT22;5650;52.700;7.306;2022-07-23T10:24:18;23.20;91.90
11188;DHT22;5650;52.700;7.306;2022-07-23T10:26:58;23.20;92.00
11188;DHT22;5650;52.700;7.306;2022-07-23T10:29:41;23.20;92.10
11188;DHT22;5650;52.700;7.306;2022-07-23T10:32:17;23.20;92.20
11188;DHT22;5650;52.700;7.306;2022-07-23T10:34:58;23.00;91.70
11188;DHT22;5650;52.700;7.306;2022-07-23T10:37:39;22.90;92.30
11188;DHT22;5650;52.700;7.306;2022-07-23T10:40:12;23.00;92.60
11188;DHT22;5650;52.700;7.306;2022-07-23T10:42:47;23.20;92.10
11188;DHT22;5650;52.700;7.306;2022-07-23T10:45:30;23.30;91.00
11188;DHT22;5650;52.700;7.306;2022-07-23T10:48:14;23.50;90.70
11188;DHT22;5650;52.700;7.306;2022-07-23T10:51:05;23.50;91.00
11188;DHT22;5650;52.700;7.306;2022-07-23T10:54:00;23.60;91.40
11188;DHT22;5650;52.700;7.306;2022-07-23T10:57:04;23.90;91.30
11188;DHT22;5650;52.700;7.306;2022-07-23T11:00:24;24.20;90.90
11188;DHT22;5650;52.700;7.306;2022-07-23T11:02:58;24.40;90.70
11188;DHT22;5650;52.700;7.306;2022-07-23T11:05:42;24.50;90.20
11188;DHT22;5650;52.700;7.306;2022-07-23T11:08:17;24.40;90.00
11188;DHT22;5650;52.700;7.306;2022-07-23T11:10:51;24.40;90.30
11188;DHT22;5650;52.700;7.306;2022-07-23T11:13:51;24.30;90.00
11188;DHT22;5650;52.700;7.306;2022-07-23T11:16:24;24.00;90.30
11188;DHT22;5650;52.700;7.306;2022-07-23T11:19:09;23.90;90.50
11188;DHT22;5650;52.700;7.306;2022-07-23T11:21:49;23.70;90.10
11188;DHT22;5650;52.700;7.306;2022-07-23T11:24:21;23.70;90.00
11188;DHT22;5650;52.700;7.306;2022-07-23T11:27:00;23.70;90.10
11188;DHT22;5650;52.700;7.306;2022-07-23T11:29:46;23.70;90.00
11188;DHT22;5650;52.700;7.306;2022-07-23T11:32:38;23.60;90.30
11188;DHT22;5650;52.700;7.306;2022-07-23T11:35:23;23.70;90.60
11188;DHT22;5650;52.700;7.306;2022-07-23T11:37:52;23.70;90.60
11188;DHT22;5650;52.700;7.306;2022-07-23T11:40:25;23.80;90.70
11188;DHT22;5650;52.700;7.306;2022-07-23T11:43:05;23.90;90.10
11188;DHT22;5650;52.700;7.306;2022-07-23T11:45:34;24.00;89.70
11188;DHT22;5650;52.700;7.306;2022-07-23T11:48:18;24.10;90.00
11188;DHT22;5650;52.700;7.306;2022-07-23T11:50:46;24.10;90.00
11188;DHT22;5650;52.700;7.306;2022-07-23T11:53:22;24.20;90.00
11188;DHT22;5650;52.700;7.306;2022-07-23T11:55:49;24.30;90.00
11188;DHT22;5650;52.700;7.306;2022-07-23T11:58:16;24.40;89.40
11188;DHT22;5650;52.700;7.306;2022-07-23T12:00:47;24.50;88.90
11188;DHT22;5650;52.700;7.306;2022-07-23T12:03:14;24.60;87.80
11188;DHT22;5650;52.700;7.306;2022-07-23T12:05:55;24.50;87.60
11188;DHT22;5650;52.700;7.306;2022-07-23T12:08:23;24.40;87.80
11188;DHT22;5650;52.700;7.306;2022-07-23T12:10:56;24.30;88.80
11188;DHT22;5650;52.700;7.306;2022-07-23T12:13:29;24.30;89.40
11188;DHT22;5650;52.700;7.306;2022-07-23T12:15:59;24.30;87.80
11188;DHT22;5650;52.700;7.306;2022-07-23T12:18:27;24.10;87.90
11188;DHT22;5650;52.700;7.306;2022-07-23T12:21:12;24.00;89.10
11188;DHT22;5650;52.700;7.306;2022-07-23T12:23:46;23.80;89.30
11188;DHT22;5650;52.700;7.306;2022-07-23T12:26:21;23.70;90.10
11188;DHT22;5650;52.700;7.306;2022-07-23T12:28:53;23.70;90.20
11188;DHT22;5650;52.700;7.306;2022-07-23T12:31:26;23.70;90.10
11188;DHT22;5650;52.700;7.306;2022-07-23T12:33:52;23.60;89.20
11188;DHT22;5650;52.700;7.306;2022-07-23T12:36:37;23.50;88.70
11188;DHT22;5650;52.700;7.306;2022-07-23T12:39:05;23.40;90.00
11188;DHT22;5650;52.700;7.306;2022-07-23T12:41:52;23.40;90.00
11188;DHT22;5650;52.700;7.306;2022-07-23T12:44:23;23.30;90.10
11188;DHT22;5650;52.700;7.306;2022-07-23T12:46:59;23.30;90.20
11188;DHT22;5650;52.700;7.306;2022-07-23T12:49:53;23.30;90.50
11188;DHT22;5650;52.700;7.306;2022-07-23T12:52:22;23.30;91.10
11188;DHT22;5650;52.700;7.306;2022-07-23T12:54:58;23.40;90.70
11188;DHT22;5650;52.700;7.306;2022-07-23T12:57:49;23.50;90.70
11188;DHT22;5650;52.700;7.306;2022-07-23T13:00:17;23.60;90.80
11188;DHT22;5650;52.700;7.306;2022-07-23T13:02:45;23.60;90.80
11188;DHT22;5650;52.700;7.306;2022-07-23T13:05:16;23.60;90.50
11188;DHT22;5650;52.700;7.306;2022-07-23T13:07:44;23.60;91.60
11188;DHT22;5650;52.700;7.306;2022-07-23T13:10:11;23.60;90.90
11188;DHT22;5650;52.700;7.306;2022-07-23T13:12:42;23.70;90.90
11188;DHT22;5650;52.700;7.306;2022-07-23T13:15:09;23.80;91.20
11188;DHT22;5650;52.700;7.306;2022-07-23T13:17:43;24.00;91.20
11188;DHT22;5650;52.700;7.306;2022-07-23T13:20:20;24.30;90.30
11188;DHT22;5650;52.700;7.306;2022-07-23T13:22:48;24.40;90.40
11188;DHT22;5650;52.700;7.306;2022-07-23T13:25:18;24.40;90.40
11188;DHT22;5650;52.700;7.306;2022-07-23T13:27:45;24.30;90.30
11188;DHT22;5650;52.700;7.306;2022-07-23T13:30:13;24.20;90.10
11188;DHT22;5650;52.700;7.306;2022-07-23T13:32:50;24.10;90.30
11188;DHT22;5650;52.700;7.306;2022-07-23T13:35:20;24.00;90.40
11188;DHT22;5650;52.700;7.306;2022-07-23T13:37:52;23.90;90.80
11188;DHT22;5650;52.700;7.306;2022-07-23T13:40:19;23.90;90.70
11188;DHT22;5650;52.700;7.306;2022-07-23T13:42:46;23.90;90.60
11188;DHT22;5650;52.700;7.306;2022-07-23T13:45:22;23.90;90.90
11188;DHT22;5650;52.700;7.306;2022-07-23T13:47:49;24.00;91.10
11188;DHT22;5650;52.700;7.306;2022-07-23T13:50:17;24.00;90.60
11188;DHT22;5650;52.700;7.306;2022-07-23T13:52:44;23.90;90.80
11188;DHT22;5650;52.700;7.306;2022-07-23T13:55:12;24.00;91.10
11188;DHT22;5650;52.700;7.306;2022-07-23T13:57:42;24.00;91.00
11188;DHT22;5650;52.700;7.306;2022-07-23T14:00:13;24.00;91.30
11188;DHT22;5650;52.700;7.306;2022-07-23T14:02:42;24.00;91.20
11188;DHT22;5650;52.700;7.306;2022-07-23T14:05:12;23.90;91.00
11188;DHT22;5650;52.700;7.306;2022-07-23T14:07:39;23.90;91.30
11188;DHT22;5650;52.700;7.306;2022-07-23T14:10:20;23.90;90.90
11188;DHT22;5650;52.700;7.306;2022-07-23T14:12:48;23.80;90.90
11188;DHT22;5650;52.700;7.306;2022-07-23T14:15:16;23.60;91.50
11188;DHT22;5650;52.700;7.306;2022-07-23T14:17:44;23.50;91.70
11188;DHT22;5650;52.700;7.306;2022-07-23T14:20:13;23.50;91.80
11188;DHT22;5650;52.700;7.306;2022-07-23T14:22:41;23.50;91.70
11188;DHT22;5650;52.700;7.306;2022-07-23T14:25:09;23.50;92.20
11188;DHT22;5650;52.700;7.306;2022-07-23T14:27:38;23.70;92.00
11188;DHT22;5650;52.700;7.306;2022-07-23T14:30:10;23.80;91.90
11188;DHT22;5650;52.700;7.306;2022-07-23T14:32:41;23.90;91.80
11188;DHT22;5650;52.700;7.306;2022-07-23T14:35:08;23.90;91.90
11188;DHT22;5650;52.700;7.306;2022-07-23T14:37:35;24.00;91.80
11188;DHT22;5650;52.700;7.306;2022-07-23T14:40:03;24.10;91.60
11188;DHT22;5650;52.700;7.306;2022-07-23T14:42:38;24.20;91.70
11188;DHT22;5650;52.700;7.306;2022-07-23T14:45:06;24.30;91.30
11188;DHT22;5650;52.700;7.306;2022-07-23T14:47:33;24.40;90.80
11188;DHT22;5650;52.700;7.306;2022-07-23T14:50:01;24.30;90.90
11188;DHT22;5650;52.700;7.306;2022-07-23T14:52:34;24.20;91.10
11188;DHT22;5650;52.700;7.306;2022-07-23T14:55:04;24.10;91.30
11188;DHT22;5650;52.700;7.306;2022-07-23T14:57:34;24.00;91.10
11188;DHT22;5650;52.700;7.306;2022-07-23T15:00:06;24.00;91.30
11188;DHT22;5650;52.700;7.306;2022-07-23T15:02:43;24.00;91.60
11188;DHT22;5650;52.700;7.306;2022-07-23T15:05:13;24.10;91.50
11188;DHT22;5650;52.700;7.306;2022-07-23T15:07:46;24.10;91.40
11188;DHT22;5650;52.700;7.306;2022-07-23T15:10:15;24.30;91.40
11188;DHT22;5650;52.700;7.306;2022-07-23T15:12:48;24.20;91.10
11188;DHT22;5650;52.700;7.306;2022-07-23T15:15:17;24.00;91.30
11188;DHT22;5650;52.700;7.306;2022-07-23T15:17:45;24.00;92.00
11188;DHT22;5650;52.700;7.306;2022-07-23T15:20:14;24.00;91.60
11188;DHT22;5650;52.700;7.306;2022-07-23T15:22:42;23.90;92.00
11188;DHT22;5650;52.700;7.306;2022-07-23T15:25:17;23.90;92.00
11188;DHT22;5650;52.700;7.306;2022-07-23T15:27:50;23.90;92.00
11188;DHT22;5650;52.700;7.306;2022-07-23T15:30:19;24.00;92.00
11188;DHT22;5650;52.700;7.306;2022-07-23T15:32:46;24.00;92.10
11188;DHT22;5650;52.700;7.306;2022-07-23T15:35:22;23.90;91.90
11188;DHT22;5650;52.700;7.306;2022-07-23T15:37:50;23.80;92.30
11188;DHT22;5650;52.700;7.306;2022-07-23T15:40:17;23.90;92.40
11188;DHT22;5650;52.700;7.306;2022-07-23T15:42:44;23.90;92.60
11188;DHT22;5650;52.700;7.306;2022-07-23T15:45:21;24.00;92.50
11188;DHT22;5650;52.700;7.306;2022-07-23T15:47:48;23.90;92.40
11188;DHT22;5650;52.700;7.306;2022-07-23T15:50:22;23.90;92.40
11188;DHT22;5650;52.700;7.306;2022-07-23T15:53:04;23.80;92.40
11188;DHT22;5650;52.700;7.306;2022-07-23T15:55:34;23.70;92.60
11188;DHT22;5650;52.700;7.306;2022-07-23T15:58:02;23.70;93.00
11188;DHT22;5650;52.700;7.306;2022-07-23T16:00:30;23.70;92.90
11188;DHT22;5650;52.700;7.306;2022-07-23T16:03:00;23.70;92.70
11188;DHT22;5650;52.700;7.306;2022-07-23T16:05:27;23.70;92.50
11188;DHT22;5650;52.700;7.306;2022-07-23T16:08:00;23.70;92.90
11188;DHT22;5650;52.700;7.306;2022-07-23T16:10:35;23.60;92.90
11188;DHT22;5650;52.700;7.306;2022-07-23T16:13:03;23.60;93.10
11188;DHT22;5650;52.700;7.306;2022-07-23T16:15:35;23.60;93.20